createdAt,value
2022-10-23T00:01:53.514Z,99.03
2022-10-23T00:04:26.137Z,99.48
2022-10-23T00:06:55.178Z,99.22
2022-10-23T00:09:25.476Z,99.70
2022-10-23T00:11:54.593Z,98.75
2022-10-23T00:14:25.866Z,94.03
2022-10-23T00:16:55.357Z,93.26
2022-10-23T00:19:25.976Z,92.43
2022-10-23T00:21:54.861Z,92.01
2022-10-23T00:24:23.635Z,90.10
2022-10-23T00:26:52.635Z,91.14
2022-10-23T00:29:22.091Z,90.19
2022-10-23T00:31:51.707Z,89.15
2022-10-23T00:34:21.068Z,90.22
2022-10-23T00:36:51.582Z,90.32
2022-10-23T00:39:22.227Z,90.67
2022-10-23T00:41:53.068Z,94.17
2022-10-23T00:44:23.480Z,94.86
2022-10-23T00:46:52.726Z,94.50
2022-10-23T00:49:23.609Z,94.84
2022-10-23T00:52:05.625Z,94.01
2022-10-23T00:54:38.815Z,92.99
2022-10-23T00:57:11.997Z,97.37
2022-10-23T00:59:41.920Z,97.24
2022-10-23T01:02:11.837Z,94.75
2022-10-23T01:04:42.237Z,93.38
2022-10-23T01:07:32.786Z,95.40
2022-10-23T01:10:29.948Z,95.33
2022-10-23T01:12:59.190Z,94.91
2022-10-23T01:15:33.127Z,95.80
2022-10-23T01:18:07.573Z,96.47
2022-10-23T01:20:42.194Z,98.97
2022-10-23T01:23:24.231Z,99.94
2022-10-23T01:25:53.355Z,100.00
2022-10-23T01:28:26.993Z,100.00
2022-10-23T01:30:58.113Z,100.00
2022-10-23T01:33:44.194Z,100.00
2022-10-23T01:36:16.046Z,100.00
2022-10-23T01:38:57.051Z,100.00
2022-10-23T01:41:37.090Z,100.00
2022-10-23T01:44:09.900Z,100.00
2022-10-23T01:46:40.533Z,100.00
2022-10-23T01:49:13.028Z,100.00
2022-10-23T01:51:46.813Z,100.00
2022-10-23T01:54:17.228Z,100.00
2022-10-23T01:56:47.338Z,100.00
2022-10-23T01:59:24.001Z,100.00
2022-10-23T02:01:55.360Z,100.00
2022-10-23T02:04:32.015Z,100.00
2022-10-23T02:07:01.315Z,100.00
2022-10-23T02:09:30.897Z,100.00
2022-10-23T02:12:04.048Z,100.00
2022-10-23T02:14:53.010Z,100.00
2022-10-23T02:17:32.614Z,100.00
2022-10-23T02:20:18.086Z,100.00
2022-10-23T02:22:56.809Z,100.00
2022-10-23T02:25:31.425Z,100.00
2022-10-23T02:28:04.921Z,100.00
2022-10-23T02:30:43.995Z,100.00
2022-10-23T02:33:15.017Z,100.00
2022-10-23T02:35:46.439Z,100.00
2022-10-23T02:38:29.596Z,100.00
2022-10-23T02:41:04.512Z,99.99
2022-10-23T02:43:45.041Z,100.00
2022-10-23T02:46:22.908Z,100.00
2022-10-23T02:49:11.721Z,99.90
2022-10-23T02:51:48.725Z,99.49
2022-10-23T02:54:44.037Z,99.32
2022-10-23T02:57:29.100Z,98.74
2022-10-23T02:59:59.111Z,98.36
2022-10-23T03:02:35.057Z,98.21
2022-10-23T03:05:06.227Z,98.04
2022-10-23T03:07:36.305Z,97.78
2022-10-23T03:10:10.310Z,97.90
2022-10-23T03:12:40.136Z,98.43
2022-10-23T03:15:12.312Z,98.13
2022-10-23T03:17:42.436Z,98.54
2022-10-23T03:20:11.954Z,98.75
2022-10-23T03:22:40.916Z,98.28
2022-10-23T03:25:10.732Z,99.10
2022-10-23T03:27:40.051Z,99.25
2022-10-23T03:30:11.369Z,99.25
2022-10-23T03:32:41.387Z,99.04
2022-10-23T03:35:11.434Z,99.05
2022-10-23T03:37:41.658Z,98.87
2022-10-23T03:40:13.274Z,98.74
2022-10-23T03:42:42.893Z,98.18
2022-10-23T03:45:14.546Z,97.81
2022-10-23T03:47:44.676Z,98.04
2022-10-23T03:50:15.010Z,97.77
2022-10-23T03:52:44.493Z,98.12
2022-10-23T03:55:14.443Z,98.40
2022-10-23T03:57:43.412Z,98.35
2022-10-23T04:00:14.306Z,98.41
2022-10-23T04:02:46.762Z,98.76
2022-10-23T04:05:16.627Z,98.66
2022-10-23T04:07:51.148Z,98.19
2022-10-23T04:10:19.835Z,98.07
2022-10-23T04:12:48.619Z,97.92
2022-10-23T04:15:18.048Z,98.34
2022-10-23T04:17:48.463Z,98.91
2022-10-23T04:20:17.143Z,98.16
2022-10-23T04:22:45.950Z,98.45
2022-10-23T04:25:14.827Z,98.31
2022-10-23T04:27:43.840Z,98.80
2022-10-23T04:30:13.110Z,97.96
2022-10-23T04:32:41.894Z,98.09
2022-10-23T04:35:10.484Z,98.13
2022-10-23T04:37:39.486Z,98.35
2022-10-23T04:40:08.687Z,98.63
2022-10-23T04:42:39.242Z,98.66
2022-10-23T04:45:08.416Z,98.96
2022-10-23T04:47:37.721Z,99.18
2022-10-23T04:50:07.905Z,98.88
2022-10-23T04:52:55.857Z,98.78
2022-10-23T04:55:49.622Z,98.35
2022-10-23T04:58:26.089Z,98.71
2022-10-23T05:00:54.840Z,98.25
2022-10-23T05:03:26.478Z,99.14
2022-10-23T05:05:56.342Z,99.06
2022-10-23T05:08:57.257Z,98.33
2022-10-23T05:11:51.985Z,98.71
2022-10-23T05:14:22.963Z,98.55
2022-10-23T05:16:58.360Z,97.39
2022-10-23T05:19:40.660Z,97.84
2022-10-23T05:22:09.563Z,98.51
2022-10-23T05:24:50.638Z,98.70
2022-10-23T05:27:23.740Z,98.97
2022-10-23T05:29:53.950Z,98.94
2022-10-23T05:32:28.071Z,98.43
2022-10-23T05:34:57.052Z,97.85
2022-10-23T05:37:29.118Z,98.30
2022-10-23T05:40:10.803Z,98.35
2022-10-23T05:42:41.819Z,97.56
2022-10-23T05:45:12.685Z,97.49
2022-10-23T05:48:11.048Z,97.67
2022-10-23T05:51:09.649Z,98.29
2022-10-23T05:53:45.609Z,98.49
2022-10-23T05:56:43.779Z,97.85
2022-10-23T05:59:23.090Z,98.17
2022-10-23T06:01:56.130Z,98.48
2022-10-23T06:04:43.218Z,97.52
2022-10-23T06:07:40.891Z,97.41
2022-10-23T06:10:11.001Z,97.47
2022-10-23T06:12:42.551Z,97.56
2022-10-23T06:15:13.387Z,97.80
2022-10-23T06:18:03.176Z,98.12
2022-10-23T06:20:35.543Z,97.23
2022-10-23T06:23:09.145Z,97.04
2022-10-23T06:25:58.118Z,96.52
2022-10-23T06:28:39.197Z,96.24
2022-10-23T06:31:12.267Z,95.37
2022-10-23T06:33:40.953Z,95.67
2022-10-23T06:36:10.910Z,95.53
2022-10-23T06:38:41.011Z,95.18
2022-10-23T06:41:17.159Z,94.29
2022-10-23T06:43:50.548Z,94.66
2022-10-23T06:46:40.425Z,94.76
2022-10-23T06:49:40.960Z,93.88
2022-10-23T06:52:14.476Z,93.91
2022-10-23T06:54:46.831Z,93.59
2022-10-23T06:57:25.856Z,93.40
2022-10-23T06:59:54.541Z,93.57
2022-10-23T07:02:23.132Z,94.00
2022-10-23T07:04:51.499Z,94.27
2022-10-23T07:07:20.803Z,94.16
2022-10-23T07:09:50.311Z,93.35
2022-10-23T07:12:25.135Z,93.17
2022-10-23T07:15:04.478Z,93.26
2022-10-23T07:17:32.850Z,93.44
2022-10-23T07:20:01.131Z,93.12
2022-10-23T07:22:30.121Z,93.74
2022-10-23T07:25:10.889Z,94.14
2022-10-23T07:27:40.367Z,94.23
2022-10-23T07:30:10.717Z,93.27
2022-10-23T07:32:45.236Z,93.33
2022-10-23T07:35:50.381Z,93.73
2022-10-23T07:38:26.332Z,92.98
2022-10-23T07:40:57.994Z,93.11
2022-10-23T07:43:26.810Z,92.86
2022-10-23T07:45:55.872Z,93.32
2022-10-23T07:48:32.854Z,92.36
2022-10-23T07:51:02.261Z,91.19
2022-10-23T07:53:31.883Z,91.08
2022-10-23T07:56:17.239Z,90.10
2022-10-23T07:59:11.015Z,90.14
2022-10-23T08:01:39.767Z,88.92
2022-10-23T08:04:09.712Z,88.94
2022-10-23T08:06:43.416Z,87.90
2022-10-23T08:09:12.103Z,87.94
2022-10-23T08:11:41.401Z,87.37
2022-10-23T08:14:11.007Z,86.90
2022-10-23T08:16:40.514Z,87.30
2022-10-23T08:19:34.903Z,87.83
2022-10-23T08:22:04.201Z,87.96
2022-10-23T08:24:32.783Z,87.52
2022-10-23T08:27:01.265Z,87.11
2022-10-23T08:29:30.265Z,87.20
2022-10-23T08:31:58.636Z,87.60
2022-10-23T08:34:31.826Z,87.06
2022-10-23T08:37:00.822Z,87.29
2022-10-23T08:39:29.402Z,87.22
2022-10-23T08:42:18.883Z,87.52
2022-10-23T08:44:52.788Z,87.44
2022-10-23T08:47:27.819Z,87.78
2022-10-23T08:50:14.974Z,87.84
2022-10-23T08:52:52.633Z,87.99
2022-10-23T08:55:27.668Z,88.49
2022-10-23T08:58:01.885Z,88.28
2022-10-23T09:00:30.674Z,87.91
2022-10-23T09:03:01.098Z,87.39
2022-10-23T09:05:32.240Z,87.47
2022-10-23T09:08:19.253Z,87.44
2022-10-23T09:10:50.624Z,88.34
2022-10-23T09:13:19.910Z,88.32
2022-10-23T09:15:53.812Z,87.77
2022-10-23T09:18:24.550Z,87.76
2022-10-23T09:20:54.360Z,87.54
2022-10-23T09:23:23.555Z,86.94
2022-10-23T09:25:57.220Z,86.57
2022-10-23T09:28:31.471Z,86.34
2022-10-23T09:31:07.734Z,84.58
2022-10-23T09:33:37.507Z,84.47
2022-10-23T09:36:06.030Z,83.86
2022-10-23T09:38:34.306Z,83.78
2022-10-23T09:41:05.545Z,83.50
2022-10-23T09:43:34.235Z,83.51
2022-10-23T09:46:06.601Z,83.43
2022-10-23T09:48:36.113Z,83.18
2022-10-23T09:51:14.214Z,82.77
2022-10-23T09:53:57.236Z,82.86
2022-10-23T09:56:31.452Z,82.63
2022-10-23T09:59:11.916Z,83.04
2022-10-23T10:01:47.821Z,82.85
2022-10-23T10:04:36.527Z,82.45
2022-10-23T10:07:07.063Z,82.10
2022-10-23T10:09:35.239Z,82.24
2022-10-23T10:12:09.855Z,81.94
2022-10-23T10:14:56.972Z,81.94
2022-10-23T10:17:44.489Z,81.58
2022-10-23T10:20:22.192Z,82.31
2022-10-23T10:22:53.956Z,81.34
2022-10-23T10:25:38.096Z,80.88
2022-10-23T10:28:09.445Z,81.09
2022-10-23T10:30:47.655Z,81.49
2022-10-23T10:33:26.373Z,81.69
2022-10-23T10:36:13.559Z,81.58
2022-10-23T10:38:41.975Z,81.57
2022-10-23T10:41:21.620Z,81.48
2022-10-23T10:43:59.110Z,81.92
2022-10-23T10:46:45.311Z,82.38
2022-10-23T10:49:25.973Z,82.19
2022-10-23T10:52:33.466Z,82.57
2022-10-23T10:55:05.837Z,82.43
2022-10-23T10:57:37.288Z,82.04
2022-10-23T11:00:16.233Z,81.99
2022-10-23T11:02:47.661Z,81.32
2022-10-23T11:05:25.460Z,81.30
2022-10-23T11:07:53.738Z,81.31
2022-10-23T11:10:22.426Z,81.64
2022-10-23T11:12:51.522Z,81.64
2022-10-23T11:15:22.865Z,81.70
2022-10-23T11:18:01.696Z,82.31
2022-10-23T11:20:45.293Z,83.30
2022-10-23T11:23:28.350Z,83.79
2022-10-23T11:26:28.776Z,82.67
2022-10-23T11:29:13.744Z,83.20
2022-10-23T11:32:00.761Z,83.04
2022-10-23T11:34:32.313Z,82.24
2022-10-23T11:37:05.304Z,82.08
2022-10-23T11:39:35.212Z,82.36
2022-10-23T11:42:08.309Z,81.57
2022-10-23T11:44:47.130Z,81.25
2022-10-23T11:47:26.562Z,80.77
2022-10-23T11:50:15.215Z,81.39
2022-10-23T11:53:13.107Z,81.34
2022-10-23T11:55:56.517Z,80.17
2022-10-23T11:58:32.336Z,79.97
2022-10-23T12:01:03.989Z,79.81
2022-10-23T12:04:01.488Z,79.10
2022-10-23T12:06:39.384Z,77.99
2022-10-23T12:09:27.939Z,78.15
2022-10-23T12:12:08.607Z,77.85
2022-10-23T12:14:36.878Z,76.28
2022-10-23T12:17:22.872Z,75.81
2022-10-23T12:19:51.658Z,74.34
2022-10-23T12:22:22.529Z,73.09
2022-10-23T12:24:59.784Z,73.61
2022-10-23T12:27:54.309Z,72.94
2022-10-23T12:30:23.886Z,72.78
2022-10-23T12:33:11.106Z,72.39
2022-10-23T12:35:52.379Z,71.78
2022-10-23T12:38:24.444Z,72.64
2022-10-23T12:41:01.123Z,72.30
2022-10-23T12:43:33.798Z,72.65
2022-10-23T12:46:05.766Z,73.01
2022-10-23T12:48:34.653Z,73.69
2022-10-23T12:51:03.136Z,73.84
2022-10-23T12:53:31.519Z,74.38
2022-10-23T12:58:35.540Z,74.79
2022-10-23T13:01:06.940Z,74.97
2022-10-23T13:03:35.676Z,74.61
2022-10-23T13:06:06.098Z,74.92
2022-10-23T13:08:37.349Z,74.58
2022-10-23T13:11:35.625Z,72.47
2022-10-23T13:14:28.884Z,70.37
2022-10-23T13:17:10.881Z,69.55
2022-10-23T13:19:39.160Z,67.80
2022-10-23T13:22:21.877Z,68.49
2022-10-23T13:24:50.257Z,68.40
2022-10-23T13:27:47.708Z,68.25
2022-10-23T13:30:28.480Z,68.87
2022-10-23T13:32:56.858Z,68.71
2022-10-23T13:35:25.137Z,69.16
2022-10-23T13:37:53.715Z,69.67
2022-10-23T13:40:24.041Z,68.55
2022-10-23T13:42:56.006Z,69.11
2022-10-23T13:45:25.924Z,69.16
2022-10-23T13:47:54.392Z,69.16
2022-10-23T13:50:22.675Z,69.55
2022-10-23T13:52:50.954Z,70.87
2022-10-23T13:55:28.960Z,71.38
2022-10-23T13:57:57.336Z,71.64
2022-10-23T14:00:25.613Z,72.50
2022-10-23T14:05:23.499Z,71.70
2022-10-23T14:07:51.876Z,72.71
2022-10-23T14:10:21.742Z,71.76
2022-10-23T14:12:55.199Z,71.58
2022-10-23T14:15:24.173Z,70.71
2022-10-23T14:17:58.020Z,68.34
2022-10-23T14:20:28.309Z,66.51
2022-10-23T14:22:56.799Z,64.61
2022-10-23T14:25:25.366Z,62.76
2022-10-23T14:30:21.813Z,58.59
2022-10-23T14:32:50.503Z,57.10
2022-10-23T14:35:18.876Z,56.90
2022-10-23T14:37:47.257Z,57.55
2022-10-23T14:40:15.536Z,57.56
2022-10-23T14:42:44.156Z,57.79
2022-10-23T14:45:12.802Z,58.06
2022-10-23T14:47:41.295Z,58.95
2022-10-23T14:50:11.198Z,59.77
2022-10-23T14:52:39.407Z,60.52
2022-10-23T14:55:07.951Z,61.52
2022-10-23T14:57:36.332Z,61.34
2022-10-23T15:00:05.630Z,62.62
2022-10-23T15:02:34.419Z,63.30
2022-10-23T15:05:02.796Z,64.74
2022-10-23T15:07:31.281Z,65.50
2022-10-23T15:09:59.865Z,67.20
2022-10-23T15:12:28.145Z,68.92
2022-10-23T15:14:56.416Z,69.32
2022-10-23T15:17:25.101Z,70.18
2022-10-23T15:19:53.576Z,69.36
2022-10-23T15:22:23.357Z,73.11
2022-10-23T15:24:52.495Z,71.15
2022-10-23T15:27:20.871Z,70.44
2022-10-23T15:29:49.244Z,73.77
2022-10-23T15:32:17.389Z,74.66
2022-10-23T15:34:49.992Z,75.19
2022-10-23T15:37:18.271Z,74.84
2022-10-23T15:39:46.651Z,76.38
2022-10-23T15:42:14.926Z,79.15
2022-10-23T15:44:43.355Z,80.58
2022-10-23T15:47:11.689Z,80.86
2022-10-23T15:49:40.362Z,81.66
2022-10-23T15:54:38.460Z,82.79
2022-10-23T15:57:06.733Z,83.95
2022-10-23T15:59:35.010Z,85.66
2022-10-23T16:02:03.564Z,85.09
2022-10-23T16:04:31.974Z,85.52
2022-10-23T16:07:00.550Z,87.63
2022-10-23T16:09:29.647Z,86.69
2022-10-23T16:11:58.025Z,85.79
2022-10-23T16:14:26.196Z,88.93
2022-10-23T16:16:54.592Z,87.13
2022-10-23T16:19:22.850Z,85.33
2022-10-23T16:21:51.227Z,84.86
2022-10-23T16:24:19.838Z,89.28
2022-10-23T16:26:53.456Z,90.57
2022-10-23T16:29:25.996Z,91.38
2022-10-23T16:31:54.572Z,92.26
2022-10-23T16:34:23.066Z,92.22
2022-10-23T16:36:51.330Z,93.12
2022-10-23T16:39:54.729Z,93.42
2022-10-23T16:42:42.089Z,92.28
2022-10-23T16:45:19.137Z,89.20
2022-10-23T16:47:47.306Z,90.92
2022-10-23T16:50:15.890Z,93.75
2022-10-23T16:52:44.477Z,93.60
2022-10-23T16:55:13.055Z,91.26
2022-10-23T16:57:41.228Z,90.11
2022-10-23T17:00:09.707Z,91.73
2022-10-23T17:02:38.494Z,93.90
2022-10-23T17:05:07.076Z,92.41
2022-10-23T17:07:35.254Z,91.30
2022-10-23T17:10:04.039Z,90.79
2022-10-23T17:12:32.418Z,91.02
2022-10-23T17:15:00.794Z,93.68
2022-10-23T17:17:29.073Z,92.28
2022-10-23T17:19:57.351Z,91.12
2022-10-23T17:22:25.830Z,91.58
2022-10-23T17:24:54.327Z,92.72
2022-10-23T17:27:22.791Z,89.00
2022-10-23T17:29:50.969Z,86.74
2022-10-23T17:32:19.139Z,87.02
2022-10-23T17:34:47.312Z,87.34
2022-10-23T17:37:15.689Z,90.65
2022-10-23T17:39:43.964Z,90.68
2022-10-23T17:42:12.347Z,93.80
2022-10-23T17:44:40.621Z,93.45
2022-10-23T17:47:08.895Z,93.77
2022-10-23T17:49:37.601Z,95.61
2022-10-23T17:52:07.087Z,95.73
2022-10-23T17:54:35.264Z,93.51
2022-10-23T17:57:03.434Z,92.43
2022-10-23T17:59:31.606Z,93.79
2022-10-23T18:02:00.931Z,92.12
2022-10-23T18:04:30.003Z,96.79
2022-10-23T18:06:58.179Z,98.65
2022-10-23T18:09:26.554Z,100.00
2022-10-23T18:11:54.828Z,100.00
2022-10-23T18:14:25.179Z,99.51
2022-10-23T18:16:55.682Z,99.41
2022-10-23T18:19:23.863Z,99.44
2022-10-23T18:21:52.542Z,99.42
2022-10-23T18:24:20.920Z,98.66
2022-10-23T18:26:49.403Z,97.93
2022-10-23T18:29:17.781Z,99.74
2022-10-23T18:31:48.387Z,97.84
2022-10-23T18:34:21.710Z,99.59
2022-10-23T18:36:51.004Z,99.96
2022-10-23T18:39:22.791Z,99.30
2022-10-23T18:41:52.368Z,98.67
2022-10-23T18:44:21.380Z,98.19
2022-10-23T18:46:50.146Z,97.83
2022-10-23T18:49:19.244Z,99.51
2022-10-23T18:51:50.096Z,98.99
2022-10-23T18:54:19.788Z,96.32
2022-10-23T18:56:48.782Z,95.15
2022-10-23T18:59:18.489Z,94.65
2022-10-23T19:01:46.777Z,94.14
2022-10-23T19:04:18.224Z,96.40
2022-10-23T19:06:47.620Z,99.83
2022-10-23T19:09:16.613Z,99.50
2022-10-23T19:11:45.809Z,99.98
2022-10-23T19:14:14.088Z,100.00
2022-10-23T19:16:59.869Z,100.00
2022-10-23T19:19:34.088Z,100.00
2022-10-23T19:22:04.117Z,100.00
2022-10-23T19:24:34.633Z,100.00
2022-10-23T19:27:03.315Z,100.00
2022-10-23T19:29:31.803Z,100.00
2022-10-23T19:32:00.379Z,100.00
2022-10-23T19:34:28.758Z,100.00
2022-10-23T19:36:57.034Z,100.00
2022-10-23T19:39:26.693Z,100.00
2022-10-23T19:41:55.125Z,100.00
2022-10-23T19:44:23.478Z,100.00
2022-10-23T19:46:51.879Z,100.00
2022-10-23T19:49:20.160Z,100.00
2022-10-23T19:51:51.279Z,100.00
2022-10-23T19:54:20.804Z,100.00
2022-10-23T19:56:49.392Z,100.00
2022-10-23T19:59:18.379Z,100.00
2022-10-23T20:01:48.894Z,100.00
2022-10-23T20:04:18.547Z,100.00
2022-10-23T20:06:47.097Z,100.00
2022-10-23T20:09:15.892Z,100.00
2022-10-23T20:11:45.585Z,100.00
2022-10-23T20:14:14.392Z,100.00
2022-10-23T20:16:45.252Z,100.00
2022-10-23T20:19:14.879Z,100.00
2022-10-23T20:21:45.048Z,100.00
2022-10-23T20:24:14.963Z,100.00
2022-10-23T20:26:44.476Z,100.00
2022-10-23T20:29:12.951Z,100.00
2022-10-23T20:31:41.948Z,100.00
2022-10-23T20:34:11.154Z,100.00
2022-10-23T20:36:46.725Z,100.00
2022-10-23T20:39:20.018Z,100.00
2022-10-23T20:41:48.374Z,100.00
2022-10-23T20:44:18.411Z,100.00
2022-10-23T20:46:47.376Z,100.00
2022-10-23T20:49:16.191Z,100.00
2022-10-23T20:51:44.737Z,100.00
2022-10-23T20:54:13.014Z,100.00
2022-10-23T20:56:41.417Z,100.00
2022-10-23T20:59:13.864Z,100.00
2022-10-23T21:01:43.396Z,100.00
2022-10-23T21:04:13.286Z,100.00
2022-10-23T21:07:04.419Z,100.00
2022-10-23T21:09:31.959Z,100.00
2022-10-23T21:12:00.338Z,100.00
2022-10-23T21:14:29.228Z,100.00
2022-10-23T21:16:57.608Z,100.00
2022-10-23T21:19:25.887Z,100.00
2022-10-23T21:21:54.569Z,100.00
2022-10-23T21:24:24.380Z,100.00
2022-10-23T21:26:52.864Z,100.00
2022-10-23T21:29:21.244Z,100.00
2022-10-23T21:31:56.991Z,99.96
2022-10-23T21:34:26.407Z,100.00
2022-10-23T21:39:44.564Z,100.00
2022-10-23T21:42:14.375Z,100.00
2022-10-23T21:44:42.946Z,100.00
2022-10-23T21:47:11.753Z,100.00
2022-10-23T21:49:40.621Z,100.00
2022-10-23T21:52:09.222Z,100.00
2022-10-23T21:54:37.557Z,100.00
2022-10-23T21:57:12.834Z,100.00
2022-10-23T21:59:41.416Z,100.00
2022-10-23T22:02:11.210Z,100.00
2022-10-23T22:04:40.319Z,100.00
2022-10-23T22:07:11.238Z,100.00
2022-10-23T22:09:40.249Z,100.00
2022-10-23T22:12:10.421Z,100.00
2022-10-23T22:14:39.663Z,100.00
2022-10-23T22:17:08.358Z,98.69
2022-10-23T22:19:37.061Z,98.36
2022-10-23T22:22:06.241Z,99.46
2022-10-23T22:24:35.918Z,100.00
2022-10-23T22:27:04.633Z,100.00
2022-10-23T22:29:33.828Z,100.00
2022-10-23T22:32:03.381Z,100.00
2022-10-23T22:34:52.653Z,100.00
2022-10-23T22:37:22.540Z,100.00
2022-10-23T22:39:52.745Z,100.00
2022-10-23T22:42:21.944Z,100.00
2022-10-23T22:44:50.829Z,100.00
2022-10-23T22:47:19.735Z,100.00
2022-10-23T22:49:48.306Z,100.00
2022-10-23T22:52:17.400Z,100.00
2022-10-23T22:54:47.926Z,100.00
2022-10-23T22:57:17.179Z,100.00
2022-10-23T22:59:45.578Z,100.00
2022-10-23T23:02:15.005Z,100.00
2022-10-23T23:04:44.111Z,100.00
2022-10-23T23:07:12.995Z,100.00
2022-10-23T23:09:42.714Z,100.00
2022-10-23T23:12:14.066Z,100.00
2022-10-23T23:14:44.775Z,100.00
2022-10-23T23:17:14.517Z,100.00
2022-10-23T23:19:43.872Z,100.00
2022-10-23T23:22:12.886Z,100.00
2022-10-23T23:24:41.678Z,100.00
2022-10-23T23:27:10.689Z,100.00
2022-10-23T23:29:39.896Z,100.00
2022-10-23T23:32:09.172Z,100.00
2022-10-23T23:34:37.641Z,100.00
2022-10-23T23:37:06.950Z,100.00
2022-10-23T23:39:36.359Z,100.00
2022-10-23T23:42:06.079Z,100.00
2022-10-23T23:44:41.905Z,100.00
2022-10-23T23:47:19.556Z,100.00
2022-10-23T23:49:48.816Z,100.00
2022-10-23T23:52:18.522Z,100.00
2022-10-23T23:54:47.421Z,100.00
2022-10-23T23:57:17.243Z,100.00
2022-10-23T23:59:46.935Z,100.00
